Strona główna
METAR-TAF:

METAR-TAF

Lotnisko :

Waterbury-Oxford Airport

Oxford, Connecticut, Stany Zjednoczone

Szerokość geograficzna: 41-29N, Długość geograficzna: 073-08W, wysokość: 222 m

Aktualna obserwacja pogody

Raport powstał 1 godzina i 0 minut temu, godzina 16:51 UTC
Wiatr 6 kt od południowo-południowy zachód
Temperatura -1°C
Wilgotność 80%
Ciśnienie 1024 hPa
Widzialność: 16.1 km
Zachmurzenie całkowite na wysokości 2400 ft

METAR: KOXC 231651Z 21006KT 10SM OVC024 M01/M04 A3023 RMK AO2 SLP260 T10111044

czas: 12:51 (17:51 UTC)


TAF: brakujący

Obserwacja i prognoza pogody dla ponad 4000 lotnisk (raport METAR i TAF).

Dostępne stacje oznaczono żółtymi i czerwonymi punktami na mapie.

Najedź kursorem aby zobaczyć nazwę stacji.

Kliknij aby zobaczyć obserwacje i prognozy pogody.

Aby zmienić mapę: kliknij na zielony przycisk z czarnym krzyżykiem, aby powiększyć; na zielony przycisk z myślnikiem, aby pomniejszyć; na zielone strzałki, aby przejść do map sąsiednich.


METAR-TAF: